Time;durP1;ratioP1;P1;durP2;ratioP2;P2;SDS_P1;SDS_P2;PMS_P1;PMS_P2;Temp;Humidity;BMP_temperature;BMP_pressure;BME280_temperature;BME280_humidity;BME280_pressure;Samples;Min_cycle;Max_cycle;Signal;HPM_P1;HPM_P2
2022/09/06 11:15:26;;;;;;;;;;;13.80;81.70;;;;;;6002649;23;3330864;-70
2022/09/06 11:18:25;;;;;;;;;;;13.70;82.00;;;;;;6097170;23;19910;-73
2022/09/06 11:20:57;;;;;;;;;;;13.70;82.20;;;;;;6043889;23;19971;-71
2022/09/06 11:23:37;;;;;;;;;;;13.70;82.80;;;;;;6122664;23;19909;-75
2022/09/06 11:26:03;;;;;;;;;;;13.70;83.50;;;;;;6097145;23;19909;-79
2022/09/06 11:28:33;;;;;;;;;;;13.70;84.50;;;;;;6123363;23;19915;-74
2022/09/06 11:30:59;;;;;;;;;;;13.70;85.10;;;;;;6073523;23;19960;-73
2022/09/06 11:33:27;;;;;;;;;;;13.70;85.40;;;;;;6122280;23;19933;-71
2022/09/06 11:36:13;;;;;;;;;;;13.70;85.50;;;;;;6123698;23;19916;-72
2022/09/06 11:38:40;;;;;;;;;;;13.70;85.50;;;;;;6120636;23;19913;-72
2022/09/06 11:41:12;;;;;;;;;;;13.70;85.40;;;;;;6095970;23;19908;-73
2022/09/06 11:43:43;;;;;;;;;;;13.70;85.20;;;;;;6071973;23;20221;-71
2022/09/06 11:46:09;;;;;;;;;;;13.70;85.30;;;;;;6121907;23;19914;-73
2022/09/06 11:48:48;;;;;;;;;;;13.70;85.20;;;;;;6096192;23;19963;-71
2022/09/06 11:51:24;;;;;;;;;;;13.70;85.10;;;;;;6096533;23;20317;-71
2022/09/06 11:53:50;;;;;;;;;;;13.70;84.90;;;;;;6096122;23;20320;-74
2022/09/06 11:56:43;;;;;;;;;;;13.70;85.00;;;;;;6121426;23;19909;-71
2022/09/06 11:59:17;;;;;;;;;;;13.70;84.90;;;;;;6115590;23;19922;-72
2022/09/06 12:01:56;;;;;;;;;;;13.60;85.00;;;;;;6122844;23;19916;-74
2022/09/06 12:04:22;;;;;;;;;;;13.70;84.90;;;;;;6121659;23;19995;-79
2022/09/06 12:07:07;;;;;;;;;;;13.60;84.90;;;;;;6073459;23;19909;-80
2022/09/06 12:09:41;;;;;;;;;;;13.60;85.10;;;;;;6122853;23;20239;-74
2022/09/06 12:12:08;;;;;;;;;;;13.60;85.20;;;;;;6122908;23;19913;-73
2022/09/06 22:18:25;;;;;;;;;;;12.50;86.20;;;;;;6182178;23;19970;-67
2022/09/06 22:20:51;;;;;;;;;;;12.60;86.20;;;;;;6183690;23;20016;-67
2022/09/06 22:23:18;;;;;;;;;;;12.70;86.20;;;;;;6156788;23;19908;-68
2022/09/06 22:25:44;;;;;;;;;;;12.70;86.20;;;;;;6183228;23;19904;-67
2022/09/06 22:28:11;;;;;;;;;;;12.70;85.70;;;;;;6183488;23;19911;-67
2022/09/06 22:30:37;;;;;;;;;;;12.70;85.80;;;;;;6183774;23;19905;-67
2022/09/06 22:33:04;;;;;;;;;;;12.80;85.90;;;;;;6180359;23;20240;-69
2022/09/06 22:35:31;;;;;;;;;;;12.90;86.10;;;;;;6182101;23;19904;-67
2022/09/06 22:37:57;;;;;;;;;;;12.90;86.00;;;;;;6183238;23;19905;-67
2022/09/06 22:40:24;;;;;;;;;;;13.00;85.80;;;;;;6183587;23;20235;-67
2022/09/06 22:42:51;;;;;;;;;;;13.10;85.80;;;;;;6183432;23;20291;-67
2022/09/06 22:45:17;;;;;;;;;;;13.10;86.00;;;;;;6183074;23;19905;-67
2022/09/06 22:47:44;;;;;;;;;;;13.20;85.90;;;;;;6184255;23;19911;-67
2022/09/06 22:50:11;;;;;;;;;;;13.20;86.00;;;;;;6182110;23;20323;-67
2022/09/06 22:52:38;;;;;;;;;;;13.30;85.70;;;;;;6183019;23;19984;-67
2022/09/06 22:55:04;;;;;;;;;;;13.40;85.60;;;;;;6183964;23;19987;-67
2022/09/06 22:57:31;;;;;;;;;;;13.40;85.60;;;;;;6183273;23;19911;-68
2022/09/06 22:59:58;;;;;;;;;;;13.50;85.50;;;;;;6183341;23;19912;-68
2022/09/06 23:02:25;;;;;;;;;;;13.60;85.30;;;;;;6183899;23;19983;-68
2022/09/06 23:04:53;;;;;;;;;;;13.60;85.20;;;;;;6182497;23;20284;-68
2022/09/06 23:07:20;;;;;;;;;;;13.70;84.80;;;;;;6184136;23;19905;-68
2022/09/06 23:09:46;;;;;;;;;;;13.70;84.50;;;;;;6184909;23;19912;-68
2022/09/06 23:12:13;;;;;;;;;;;13.80;84.80;;;;;;6184101;23;19912;-68
2022/09/06 23:14:39;;;;;;;;;;;13.80;84.70;;;;;;6184286;23;20271;-68
2022/09/06 23:17:06;;;;;;;;;;;13.90;84.90;;;;;;6183439;23;19920;-68
2022/09/06 23:19:33;;;;;;;;;;;14.00;84.20;;;;;;6184881;23;20342;-68
2022/09/06 23:21:59;;;;;;;;;;;14.00;84.10;;;;;;6184864;23;19904;-68
2022/09/06 23:24:26;;;;;;;;;;;14.10;84.20;;;;;;6185649;23;19911;-68
2022/09/06 23:26:53;;;;;;;;;;;14.20;83.80;;;;;;6185123;23;20348;-68
2022/09/06 23:29:19;;;;;;;;;;;14.30;83.10;;;;;;6184014;23;19904;-68
2022/09/06 23:31:46;;;;;;;;;;;14.30;83.40;;;;;;6184172;23;20240;-68
2022/09/06 23:34:13;;;;;;;;;;;14.40;83.40;;;;;;6183464;23;19908;-68
2022/09/06 23:36:39;;;;;;;;;;;14.50;81.90;;;;;;6183951;23;19915;-67
2022/09/06 23:39:07;;;;;;;;;;;14.50;81.30;;;;;;6183972;23;19991;-68
2022/09/06 23:41:34;;;;;;;;;;;14.60;81.40;;;;;;6184593;23;19930;-67
2022/09/06 23:44:00;;;;;;;;;;;14.70;79.90;;;;;;6182964;23;19909;-68
2022/09/06 23:46:27;;;;;;;;;;;14.80;79.40;;;;;;6184170;23;19912;-68
2022/09/06 23:48:54;;;;;;;;;;;14.90;78.70;;;;;;6184263;23;19904;-67
2022/09/06 23:51:20;;;;;;;;;;;15.00;78.70;;;;;;6184373;23;20239;-68
2022/09/06 23:53:47;;;;;;;;;;;15.00;78.60;;;;;;6183713;23;19911;-68
2022/09/06 23:56:14;;;;;;;;;;;15.00;78.30;;;;;;6183568;23;19927;-68
2022/09/06 23:58:41;;;;;;;;;;;15.00;78.50;;;;;;6184640;23;19908;-68
